Overview Statistics Trail Chart Weather Telemetry Raw packets
 

This is the latest recevied weather packets stored in our database for station/object OK2VOP-6. If no packets are shown the sender has not sent any weather packets the latest 10 day(s).

<< 14 15 16 17 18 19 20 >>
Time Temp. Humidity Pressure Rain* Wind** Luminosity Snow
1788242121 18.33° C 44% - 0 mm - - -
1788240916 17.78° C 46% - 0 mm - - -
1788239711 15.56° C 54% - 0 mm - - -
1788238507 14.44° C 55% - 0 mm - - -
1788237302 14.44° C 54% - 0 mm - - -
1788236097 15° C 54% - 0 mm - - -
1788234892 14.44° C 55% - 0 mm - - -
1788233687 15° C 56% - 0 mm - - -
1788232482 15° C 55% - 0 mm - - -
1788231277 15.56° C 55% - 0 mm - - -
1788230073 16.11° C 54% - 0 mm - - -
1788228868 16.67° C 52% - 0 mm - - -
1788227663 17.22° C 51% - 0 mm - - -
1788226458 17.22° C 50% - 0 mm - - -
1788225254 17.22° C 49% - 0 mm - - -
1788224049 17.22° C 48% - 0 mm - - -
1788222844 17.78° C 47% - 0 mm - - -
1788221639 17.78° C 46% - 0 mm - - -
1788220434 18.33° C 44% - 0 mm - - -
1788219229 18.89° C 41% - 0 mm - - -
1788218024 19.44° C 40% - 0 mm - - -
1788216820 19.44° C 39% - 0 mm - - -
1788215615 20° C 37% - 0 mm - - -
1788214410 20° C 36% - 0 mm - - -
1788213220 20° C 38% - 0 mm - - -

* Rain latest hour (hover to see other rain measurements)
** Current wind speed in m/s (hover to see current wind gust speed)